createdAt,value
2022-08-08T00:02:31.095Z,16.82
2022-08-08T00:07:35.144Z,16.76
2022-08-08T00:12:56.772Z,16.73
2022-08-08T00:18:06.379Z,16.69
2022-08-08T00:23:16.529Z,16.65
2022-08-08T00:28:35.366Z,16.61
2022-08-08T00:34:17.145Z,16.57
2022-08-08T00:41:07.146Z,16.56
2022-08-08T00:44:59.712Z,16.49
2022-08-08T00:50:52.436Z,16.45
2022-08-08T00:56:30.080Z,16.44
2022-08-08T01:01:52.464Z,16.39
2022-08-08T01:07:55.626Z,16.34
2022-08-08T01:14:01.092Z,16.32
2022-08-08T01:20:01.870Z,16.27
2022-08-08T01:25:42.752Z,16.16
2022-08-08T01:32:13.904Z,16.09
2022-08-08T01:37:58.121Z,16.08
2022-08-08T01:43:38.442Z,16.02
2022-08-08T01:48:59.526Z,16.00
2022-08-08T01:55:25.695Z,15.84
2022-08-08T02:00:04.870Z,15.79
2022-08-08T02:05:56.485Z,15.78
2022-08-08T02:11:23.556Z,15.85
2022-08-08T02:16:49.185Z,15.80
2022-08-08T02:22:28.413Z,15.71
2022-08-08T02:27:42.464Z,15.64
2022-08-08T02:33:41.508Z,15.58
2022-08-08T02:39:41.800Z,15.56
2022-08-08T02:45:04.035Z,15.52
2022-08-08T02:50:42.087Z,15.55
2022-08-08T02:56:36.147Z,15.52
2022-08-08T03:02:20.203Z,15.53
2022-08-08T03:08:02.183Z,15.51
2022-08-08T03:15:56.776Z,15.50
2022-08-08T03:19:37.443Z,15.42
2022-08-08T03:24:43.431Z,15.37
2022-08-08T03:29:55.673Z,15.26
2022-08-08T03:35:05.774Z,15.26
2022-08-08T03:40:29.636Z,15.25
2022-08-08T03:46:05.067Z,15.27
2022-08-08T03:51:01.106Z,15.21
2022-08-08T03:56:09.470Z,15.14
2022-08-08T04:01:24.283Z,15.13
2022-08-08T04:06:30.782Z,15.12
2022-08-08T04:11:48.405Z,15.03
2022-08-08T04:17:22.501Z,15.05
2022-08-08T04:22:34.273Z,15.00
2022-08-08T04:28:02.377Z,15.06
2022-08-08T04:33:03.466Z,15.05
2022-08-08T04:38:09.605Z,15.06
2022-08-08T04:43:18.629Z,15.08
2022-08-08T04:48:29.717Z,15.12
2022-08-08T04:54:36.234Z,15.15
2022-08-08T04:59:00.556Z,15.20
2022-08-08T05:04:11.562Z,15.23
2022-08-08T05:09:18.993Z,15.21
2022-08-08T05:14:24.937Z,15.25
2022-08-08T05:20:09.195Z,15.27
2022-08-08T05:25:03.752Z,15.31
2022-08-08T05:30:10.901Z,15.31
2022-08-08T05:35:23.745Z,15.34
2022-08-08T05:40:31.153Z,15.41
2022-08-08T05:45:43.200Z,15.47
2022-08-08T05:50:59.093Z,15.56
2022-08-08T05:56:17.975Z,15.67
2022-08-08T06:01:51.185Z,15.79
2022-08-08T06:06:50.420Z,15.93
2022-08-08T06:11:54.853Z,16.05
2022-08-08T06:17:02.593Z,16.12
2022-08-08T06:27:48.889Z,16.36
2022-08-08T06:32:56.847Z,16.46
2022-08-08T06:38:09.325Z,16.56
2022-08-08T06:43:28.826Z,16.66
2022-08-08T06:48:42.415Z,16.76
2022-08-08T06:53:50.883Z,16.89
2022-08-08T06:59:09.988Z,17.00
2022-08-08T07:04:38.966Z,17.09
2022-08-08T07:10:00.038Z,17.28
2022-08-08T07:15:23.162Z,17.39
2022-08-08T07:20:40.478Z,17.58
2022-08-08T07:25:54.401Z,17.71
2022-08-08T07:31:00.501Z,17.83
2022-08-08T07:36:08.497Z,17.97
2022-08-08T07:41:23.529Z,18.24
2022-08-08T07:46:30.791Z,18.48
2022-08-08T07:51:53.633Z,18.87
2022-08-08T07:57:17.401Z,19.22
2022-08-08T08:02:38.588Z,19.67
2022-08-08T08:07:53.055Z,19.93
2022-08-08T08:13:25.931Z,20.13
2022-08-08T08:18:51.846Z,20.46
2022-08-08T08:24:02.784Z,20.68
2022-08-08T08:29:08.023Z,20.74
2022-08-08T08:34:21.253Z,21.03
2022-08-08T08:39:59.466Z,21.17
2022-08-08T08:44:51.203Z,21.57
2022-08-08T08:49:54.883Z,21.51
2022-08-08T08:55:02.349Z,21.77
2022-08-08T09:00:17.064Z,22.18
2022-08-08T09:05:48.884Z,22.73
2022-08-08T09:10:48.944Z,23.54
2022-08-08T09:16:02.823Z,24.05
2022-08-08T09:22:00.863Z,24.35
2022-08-08T09:26:49.675Z,24.78
2022-08-08T09:32:02.150Z,24.87
2022-08-08T09:37:57.138Z,24.82
2022-08-08T09:42:51.785Z,24.67
2022-08-08T09:48:03.875Z,24.46
2022-08-08T09:53:31.905Z,24.23
2022-08-08T09:58:57.880Z,24.01
2022-08-08T10:04:05.247Z,24.54
2022-08-08T10:09:10.152Z,24.76
2022-08-08T10:14:27.576Z,25.20
2022-08-08T10:19:57.816Z,25.27
2022-08-08T10:25:05.815Z,25.66
2022-08-08T10:30:16.628Z,26.07
2022-08-08T10:36:19.921Z,26.61
2022-08-08T10:41:03.427Z,26.48
2022-08-08T10:46:29.604Z,26.97
2022-08-08T10:51:47.486Z,26.97
2022-08-08T10:56:58.351Z,27.01
2022-08-08T11:02:04.484Z,26.43
2022-08-08T11:07:40.746Z,26.12
2022-08-08T11:12:38.425Z,25.77
2022-08-08T11:18:00.915Z,25.39
2022-08-08T11:23:06.018Z,25.26
2022-08-08T11:28:12.444Z,25.31
2022-08-08T11:33:19.231Z,25.52
2022-08-08T11:38:38.509Z,25.71
2022-08-08T11:43:49.086Z,25.73
2022-08-08T11:48:55.052Z,25.41
2022-08-08T11:54:01.073Z,25.24
2022-08-08T11:59:09.824Z,26.03
2022-08-08T12:04:14.892Z,26.20
2022-08-08T12:09:19.090Z,26.44
2022-08-08T12:14:28.944Z,26.75
2022-08-08T12:19:37.632Z,27.03
2022-08-08T12:24:56.540Z,26.65
2022-08-08T12:30:01.882Z,26.17
2022-08-08T12:35:17.632Z,26.02
2022-08-08T12:40:24.562Z,26.01
2022-08-08T12:45:59.644Z,25.83
2022-08-08T12:50:59.769Z,26.32
2022-08-08T12:56:18.667Z,26.89
2022-08-08T13:01:37.553Z,26.71
2022-08-08T13:06:54.183Z,26.91
2022-08-08T13:12:24.529Z,27.33
2022-08-08T13:18:07.723Z,27.85
2022-08-08T13:22:47.754Z,28.40
2022-08-08T13:27:54.710Z,28.22
2022-08-08T13:33:01.415Z,27.83
2022-08-08T13:38:08.434Z,27.40
2022-08-08T13:43:16.995Z,27.07
2022-08-08T13:48:25.858Z,27.05
2022-08-08T13:53:36.131Z,26.82
2022-08-08T13:58:57.263Z,26.43
2022-08-08T14:04:03.288Z,26.85
2022-08-08T14:09:25.228Z,27.35
2022-08-08T14:14:39.643Z,27.71
2022-08-08T14:19:57.464Z,27.83
2022-08-08T14:25:15.295Z,27.19
2022-08-08T14:30:20.982Z,26.96
2022-08-08T14:35:35.325Z,26.62
2022-08-08T14:40:43.291Z,26.46
2022-08-08T14:46:02.409Z,26.48
2022-08-08T14:51:07.922Z,26.38
2022-08-08T14:56:16.510Z,26.53
2022-08-08T15:01:23.836Z,26.75
2022-08-08T15:06:31.292Z,26.53
2022-08-08T15:11:39.354Z,26.38
2022-08-08T15:16:49.688Z,26.06
2022-08-08T15:21:52.689Z,26.01
2022-08-08T15:26:58.884Z,26.59
2022-08-08T15:32:30.524Z,27.09
2022-08-08T15:37:35.073Z,27.10
2022-08-08T15:42:40.075Z,26.88
2022-08-08T15:48:05.382Z,26.61
2022-08-08T15:53:06.094Z,26.68
2022-08-08T15:58:11.746Z,26.50
2022-08-08T16:03:15.123Z,26.49
2022-08-08T16:08:20.361Z,26.41
2022-08-08T16:13:34.314Z,26.23
2022-08-08T16:18:57.089Z,25.97
2022-08-08T16:24:02.681Z,25.82
2022-08-08T16:29:09.266Z,25.54
2022-08-08T16:34:13.084Z,25.29
2022-08-08T16:39:48.987Z,25.11
2022-08-08T16:44:42.721Z,25.72
2022-08-08T16:49:58.441Z,27.74
2022-08-08T16:55:34.290Z,28.44
2022-08-08T17:00:29.396Z,27.59
2022-08-08T17:05:45.151Z,26.99
2022-08-08T17:10:58.075Z,26.19
2022-08-08T17:16:15.005Z,25.97
2022-08-08T17:21:19.175Z,25.61
2022-08-08T17:26:28.835Z,25.26
2022-08-08T17:31:44.334Z,24.85
2022-08-08T17:37:00.889Z,24.63
2022-08-08T17:42:06.973Z,24.35
2022-08-08T17:47:24.062Z,24.10
2022-08-08T17:52:30.689Z,23.92
2022-08-08T17:57:35.533Z,23.97
2022-08-08T18:02:41.009Z,24.05
2022-08-08T18:08:02.761Z,24.08
2022-08-08T18:13:07.418Z,24.05
2022-08-08T18:18:28.473Z,23.97
2022-08-08T18:23:33.032Z,23.83
2022-08-08T18:28:55.006Z,23.70
2022-08-08T18:34:25.039Z,23.46
2022-08-08T18:39:27.834Z,23.28
2022-08-08T18:44:34.788Z,23.07
2022-08-08T18:49:57.768Z,22.88
2022-08-08T18:55:10.729Z,22.65
2022-08-08T19:00:20.511Z,22.49
2022-08-08T19:05:34.751Z,22.27
2022-08-08T19:10:42.772Z,22.15
2022-08-08T19:15:47.210Z,21.98
2022-08-08T19:20:56.343Z,21.83
2022-08-08T19:26:19.778Z,21.64
2022-08-08T19:31:22.941Z,21.51
2022-08-08T19:36:36.314Z,21.35
2022-08-08T19:41:41.351Z,21.21
2022-08-08T19:46:44.790Z,21.05
2022-08-08T19:51:49.521Z,20.97
2022-08-08T19:56:52.564Z,20.88
2022-08-08T20:02:02.977Z,20.74
2022-08-08T20:08:29.074Z,20.63
2022-08-08T20:12:35.854Z,20.49
2022-08-08T20:17:40.691Z,20.40
2022-08-08T20:22:46.428Z,20.29
2022-08-08T20:27:54.062Z,20.18
2022-08-08T20:32:57.340Z,20.06
2022-08-08T20:38:01.816Z,19.96
2022-08-08T20:43:16.184Z,19.86
2022-08-08T20:48:28.208Z,19.78
2022-08-08T20:53:59.755Z,19.73
2022-08-08T20:58:56.124Z,19.63
2022-08-08T21:04:00.095Z,19.60
2022-08-08T21:09:06.228Z,19.49
2022-08-08T21:14:09.327Z,19.42
2022-08-08T21:19:13.918Z,19.36
2022-08-08T21:24:30.304Z,19.27
2022-08-08T21:30:05.605Z,19.24
2022-08-08T21:36:13.819Z,19.15
2022-08-08T21:40:31.334Z,19.08
2022-08-08T21:47:59.456Z,19.01
2022-08-08T21:50:58.265Z,18.94
2022-08-08T21:56:26.630Z,18.92
2022-08-08T22:01:38.977Z,18.89
2022-08-08T22:06:43.887Z,18.85
2022-08-08T22:12:02.136Z,18.75
2022-08-08T22:17:08.671Z,18.70
2022-08-08T22:22:13.977Z,18.62
2022-08-08T22:27:18.328Z,18.57
2022-08-08T22:32:41.563Z,18.52
2022-08-08T22:37:53.867Z,18.48
2022-08-08T22:42:59.383Z,18.42
2022-08-08T22:48:02.471Z,18.36
2022-08-08T22:54:28.402Z,18.32
2022-08-08T22:58:34.627Z,18.29
2022-08-08T23:03:53.143Z,18.21
2022-08-08T23:09:00.234Z,18.17
2022-08-08T23:14:05.076Z,18.12
2022-08-08T23:19:08.924Z,18.10
2022-08-08T23:24:12.127Z,18.07
2022-08-08T23:29:16.507Z,18.01
2022-08-08T23:34:20.795Z,17.99
2022-08-08T23:39:25.818Z,17.93
2022-08-08T23:44:38.618Z,17.87
2022-08-08T23:49:42.337Z,17.76
2022-08-08T23:55:00.065Z,17.70
